Airfield :
LOGIN :

Register | Disclaimer

   EN    FR    IT 

 










Legend :    VFR   Marginal VFR   IFR   Intensive IFR   Very Intensive IFR
Visi :
Ceiling :
>= 8 km
>= 3000ft
5 to 8 km
1000 to 3000 ft
1500m to 5 km
500 to 1000 ft
800 to 1500m
200 to 500 ft
< 800m
< 200 ft
Symbols :   Thunderstorms  Fog  Heavy snow  Heavy precipitations  Wind > 20 kt
SIGMETs :     Misc.  Thunderstorms  Icing  Turbulence  Mountain Waves  Volcanic Ashes







- Airport Elevation : 126 ft
- IATA code : WIC
- Download approach charts


EGPC - Wick

CURRENT METAR :
  • 230450Z AUTO 03018KT 7000 -RA BKN011/// 03/02 Q0977

EXPIRED METARs :
  • 230420Z AUTO 02017KT 8000 -RA BKN011/// 03/02 Q0977
  • 230350Z AUTO 04018KT 7000 -RA BKN010/// 03/03 Q0976
  • 230320Z AUTO 04018KT 6000 -RA BKN010/// 03/03 Q0977
  • 230250Z AUTO 04021KT 7000 -RA BKN010/// 03/03 Q0977
  • 230220Z AUTO 04021KT 8000 DZ BKN012/// 04/03 Q0976

TAF TAF EGPC
Valid from the 23 at 03:00 until the 23 at 12:00 UTC


230154Z 2303/2312 02018KT 9999 SCT012
PROB30
TEMPO 2303/2312 4000 SHRASN BKN006
BECMG 2309/2312 31015KT
ATIS : +44 1955 607 596
No reported NOTAMs for that airfield.
1 SIGMET reported for the Scottish FIR (EGPX) :
 
Severe turbulence
EGPX SIGMET 01 VALID 230200/230600 EGRR
EGPX SCOTTISH FIR SEV TURB FCST SE OF LINE N5500 E00126 - N5756 E00327 SFC/FL060 MOV E 15KT NC=



MET'MAP, your aeronautical weather chart ! - Copyright ORBIFLY December 2007 - Disclaimer

ORBIFLY MET'MAP TEAM :

Programming & Development : Alexandra Zaïnal
Concept & Development : Baudouin d'Aumeries
Co-Development & Prog : Marc-Olivier Méhu
Technical & hardware support : Manuel Goepfert

Contact : metmap@orbifly.com




SOURCES & CREDITS :

   NOAA